createdAt,value
2023-07-25T00:01:46.384Z,27.12
2023-07-25T00:04:13.905Z,27.21
2023-07-25T00:06:41.547Z,27.19
2023-07-25T00:09:08.939Z,27.16
2023-07-25T00:11:36.644Z,27.45
2023-07-25T00:14:03.962Z,27.40
2023-07-25T00:16:31.599Z,27.22
2023-07-25T00:18:58.969Z,27.14
2023-07-25T00:21:26.636Z,27.20
2023-07-25T00:23:54.474Z,27.12
2023-07-25T00:26:22.123Z,27.18
2023-07-25T00:28:49.427Z,27.24
2023-07-25T00:31:17.147Z,27.19
2023-07-25T00:33:44.953Z,27.25
2023-07-25T00:36:12.593Z,27.33
2023-07-25T00:38:39.975Z,27.30
2023-07-25T00:41:07.613Z,27.29
2023-07-25T00:43:35.132Z,27.26
2023-07-25T00:46:02.882Z,27.32
2023-07-25T00:48:31.617Z,27.74
2023-07-25T00:50:59.077Z,27.40
2023-07-25T00:53:27.989Z,27.46
2023-07-25T00:55:55.349Z,27.36
2023-07-25T00:58:23.092Z,27.41
2023-07-25T01:00:50.671Z,27.30
2023-07-25T01:03:18.933Z,27.28
2023-07-25T01:05:50.469Z,27.26
2023-07-25T01:08:18.175Z,27.31
2023-07-25T01:10:45.525Z,27.14
2023-07-25T01:13:13.198Z,27.06
2023-07-25T01:15:41.478Z,27.06
2023-07-25T01:18:10.222Z,26.94
2023-07-25T01:20:39.126Z,26.88
2023-07-25T01:23:08.066Z,26.92
2023-07-25T01:25:36.255Z,26.71
2023-07-25T01:28:04.005Z,26.69
2023-07-25T01:30:32.179Z,26.66
2023-07-25T01:33:00.314Z,26.64
2023-07-25T01:35:28.556Z,26.62
2023-07-25T01:37:56.287Z,26.74
2023-07-25T01:40:24.213Z,26.67
2023-07-25T01:43:10.481Z,26.38
2023-07-25T01:45:37.992Z,26.50
2023-07-25T01:48:05.924Z,26.67
2023-07-25T01:50:33.511Z,26.62
2023-07-25T01:53:01.240Z,26.58
2023-07-25T01:55:28.578Z,26.62
2023-07-25T01:57:56.409Z,26.50
2023-07-25T02:00:23.996Z,26.39
2023-07-25T02:02:52.414Z,26.54
2023-07-25T02:05:19.770Z,26.37
2023-07-25T02:07:47.478Z,26.39
2023-07-25T02:10:15.717Z,26.36
2023-07-25T02:12:43.367Z,26.38
2023-07-25T02:15:11.217Z,26.48
2023-07-25T02:17:38.962Z,26.38
2023-07-25T02:20:09.108Z,26.46
2023-07-25T02:22:36.941Z,26.35
2023-07-25T02:25:04.562Z,26.19
2023-07-25T02:27:32.232Z,26.12
2023-07-25T02:29:59.548Z,26.00
2023-07-25T02:32:27.318Z,26.00
2023-07-25T02:34:54.819Z,25.84
2023-07-25T02:37:22.534Z,25.96
2023-07-25T02:39:49.959Z,26.01
2023-07-25T02:42:17.684Z,26.27
2023-07-25T02:44:45.102Z,26.27
2023-07-25T02:47:12.732Z,26.27
2023-07-25T02:49:40.070Z,26.30
2023-07-25T02:52:08.421Z,26.38
2023-07-25T02:54:35.857Z,26.36
2023-07-25T02:57:03.695Z,26.28
2023-07-25T02:59:31.130Z,26.32
2023-07-25T03:01:58.921Z,26.33
2023-07-25T03:04:26.382Z,26.46
2023-07-25T03:06:53.997Z,26.46
2023-07-25T03:09:21.309Z,26.63
2023-07-25T03:11:49.033Z,26.70
2023-07-25T03:14:16.497Z,26.67
2023-07-25T03:16:44.273Z,26.71
2023-07-25T03:19:11.638Z,26.72
2023-07-25T03:21:39.756Z,26.72
2023-07-25T03:24:07.258Z,26.76
2023-07-25T03:26:34.948Z,26.73
2023-07-25T03:29:02.399Z,26.66
2023-07-25T03:31:30.324Z,26.45
2023-07-25T03:33:57.975Z,26.29
2023-07-25T03:36:26.420Z,26.27
2023-07-25T03:38:53.707Z,26.03
2023-07-25T03:41:21.629Z,26.01
2023-07-25T03:43:49.385Z,26.04
2023-07-25T03:46:17.076Z,25.98
2023-07-25T03:48:44.488Z,25.84
2023-07-25T03:51:12.168Z,25.76
2023-07-25T03:53:39.481Z,25.81
2023-07-25T03:56:08.604Z,25.81
2023-07-25T03:58:35.971Z,25.76
2023-07-25T04:01:03.911Z,25.69
2023-07-25T04:03:31.595Z,25.59
2023-07-25T04:05:59.546Z,25.66
2023-07-25T04:08:26.880Z,25.62
2023-07-25T04:10:54.498Z,25.97
2023-07-25T04:13:21.976Z,26.19
2023-07-25T04:15:49.605Z,26.08
2023-07-25T04:18:16.996Z,26.30
2023-07-25T04:20:44.848Z,26.40
2023-07-25T04:23:12.376Z,26.55
2023-07-25T04:25:40.149Z,26.38
2023-07-25T04:28:08.196Z,26.29
2023-07-25T04:30:35.849Z,26.75
2023-07-25T04:33:03.145Z,26.65
2023-07-25T04:35:30.926Z,26.51
2023-07-25T04:37:58.180Z,26.75
2023-07-25T04:40:26.955Z,26.65
2023-07-25T04:42:54.817Z,26.73
2023-07-25T04:45:22.510Z,26.84
2023-07-25T04:47:49.897Z,27.02
2023-07-25T04:50:17.642Z,26.84
2023-07-25T04:52:44.879Z,26.93
2023-07-25T04:55:12.645Z,26.95
2023-07-25T04:57:40.268Z,27.03
2023-07-25T05:00:08.776Z,26.99
2023-07-25T05:02:36.726Z,27.23
2023-07-25T05:05:04.838Z,27.19
2023-07-25T05:07:32.204Z,27.43
2023-07-25T05:09:59.932Z,27.66
2023-07-25T05:12:27.364Z,27.77
2023-07-25T05:14:55.089Z,27.89
2023-07-25T05:17:22.420Z,28.06
2023-07-25T05:19:50.984Z,28.22
2023-07-25T05:22:18.721Z,28.36
2023-07-25T05:24:46.862Z,28.38
2023-07-25T05:27:14.418Z,28.55
2023-07-25T05:29:42.046Z,28.68
2023-07-25T05:32:09.575Z,28.70
2023-07-25T05:34:37.161Z,28.80
2023-07-25T05:37:04.649Z,28.98
2023-07-25T05:39:32.315Z,29.09
2023-07-25T05:41:59.787Z,29.06
2023-07-25T05:44:27.483Z,29.23
2023-07-25T05:46:54.789Z,29.37
2023-07-25T05:49:22.561Z,29.06
2023-07-25T05:51:52.727Z,29.02
2023-07-25T05:54:20.842Z,29.18
2023-07-25T05:56:48.110Z,29.35
2023-07-25T05:59:15.812Z,29.23
2023-07-25T06:01:43.403Z,29.54
2023-07-25T06:04:14.883Z,29.40
2023-07-25T06:06:43.699Z,29.21
2023-07-25T06:09:13.694Z,29.20
2023-07-25T06:11:41.572Z,29.27
2023-07-25T06:14:09.755Z,29.49
2023-07-25T06:16:37.267Z,29.84
2023-07-25T06:19:04.990Z,30.07
2023-07-25T06:21:33.846Z,30.27
2023-07-25T06:24:01.996Z,30.38
2023-07-25T06:26:29.858Z,30.20
2023-07-25T06:28:57.511Z,29.90
2023-07-25T06:31:25.318Z,30.01
2023-07-25T06:33:53.134Z,30.16
2023-07-25T06:36:20.794Z,30.39
2023-07-25T06:38:49.428Z,30.45
2023-07-25T06:41:16.913Z,30.72
2023-07-25T06:43:44.707Z,30.94
2023-07-25T06:46:12.097Z,31.24
2023-07-25T06:48:40.922Z,31.30
2023-07-25T06:51:08.187Z,31.30
2023-07-25T06:53:35.737Z,30.71
2023-07-25T06:56:03.057Z,31.14
2023-07-25T06:58:30.833Z,31.55
2023-07-25T07:00:59.641Z,31.38
2023-07-25T07:03:27.483Z,31.31
2023-07-25T07:05:56.761Z,30.98
2023-07-25T07:08:25.260Z,31.32
2023-07-25T07:10:56.320Z,31.57
2023-07-25T07:13:24.408Z,31.64
2023-07-25T07:15:51.831Z,32.11
2023-07-25T07:18:19.618Z,32.08
2023-07-25T07:20:49.408Z,31.71
2023-07-25T07:23:18.710Z,31.90
2023-07-25T07:25:46.629Z,32.20
2023-07-25T07:28:14.781Z,32.36
2023-07-25T07:30:42.344Z,32.63
2023-07-25T07:33:09.958Z,32.46
2023-07-25T07:35:37.260Z,32.64
2023-07-25T07:38:04.869Z,32.70
2023-07-25T07:40:32.123Z,32.68
2023-07-25T07:42:59.851Z,33.04
2023-07-25T07:45:28.541Z,33.13
2023-07-25T07:47:56.370Z,33.72
2023-07-25T07:50:23.764Z,34.01
2023-07-25T07:52:51.480Z,33.66
2023-07-25T07:55:18.855Z,33.69
2023-07-25T07:57:47.948Z,33.44
2023-07-25T08:00:16.794Z,33.89
2023-07-25T08:02:46.731Z,33.94
2023-07-25T08:05:15.111Z,33.73
2023-07-25T08:07:43.094Z,33.86
2023-07-25T08:10:11.281Z,34.11
2023-07-25T08:12:39.348Z,34.00
2023-07-25T08:15:07.378Z,34.22
2023-07-25T08:17:35.318Z,34.23
2023-07-25T08:20:05.347Z,34.21
2023-07-25T08:22:35.270Z,34.06
2023-07-25T08:25:02.719Z,35.04
2023-07-25T08:27:30.500Z,34.88
2023-07-25T08:29:57.783Z,35.03
2023-07-25T08:32:27.144Z,34.66
2023-07-25T08:34:55.193Z,34.72
2023-07-25T08:37:24.620Z,34.78
2023-07-25T08:39:52.014Z,34.75
2023-07-25T08:42:23.733Z,34.37
2023-07-25T08:44:55.190Z,34.86
2023-07-25T08:47:29.967Z,35.37
2023-07-25T08:49:59.057Z,35.48
2023-07-25T08:52:32.050Z,35.48
2023-07-25T08:54:59.573Z,35.23
2023-07-25T08:57:29.084Z,35.28
2023-07-25T08:59:56.799Z,35.59
2023-07-25T09:02:25.334Z,35.95
2023-07-25T09:04:55.655Z,35.40
2023-07-25T09:07:23.301Z,35.47
2023-07-25T09:09:50.894Z,35.66
2023-07-25T09:12:19.321Z,35.12
2023-07-25T09:14:46.735Z,35.51
2023-07-25T09:17:14.427Z,36.10
2023-07-25T09:19:42.811Z,36.33
2023-07-25T09:22:32.730Z,35.87
2023-07-25T09:25:01.010Z,36.21
2023-07-25T09:27:28.823Z,35.87
2023-07-25T09:29:56.348Z,35.33
2023-07-25T09:32:29.046Z,35.62
2023-07-25T09:35:01.964Z,36.32
2023-07-25T09:37:30.400Z,36.27
2023-07-25T09:39:57.767Z,36.85
2023-07-25T09:42:26.909Z,36.80
2023-07-25T09:44:57.496Z,36.61
2023-07-25T09:47:29.389Z,36.48
2023-07-25T09:49:57.944Z,36.85
2023-07-25T09:52:26.565Z,36.58
2023-07-25T09:54:53.900Z,37.04
2023-07-25T09:57:21.568Z,36.84
2023-07-25T09:59:50.901Z,37.20
2023-07-25T10:02:19.283Z,36.69
2023-07-25T10:04:47.807Z,36.83
2023-07-25T10:07:16.633Z,36.65
2023-07-25T10:09:47.438Z,36.04
2023-07-25T10:12:14.941Z,35.88
2023-07-25T10:14:42.634Z,35.40
2023-07-25T10:17:10.296Z,35.73
2023-07-25T10:19:53.724Z,35.70
2023-07-25T10:22:41.953Z,35.78
2023-07-25T10:25:31.003Z,35.66
2023-07-25T10:28:03.316Z,35.58
2023-07-25T10:30:32.894Z,35.29
2023-07-25T10:33:02.794Z,35.14
2023-07-25T10:35:51.043Z,34.83
2023-07-25T10:38:46.609Z,34.40
2023-07-25T10:41:14.708Z,34.14
2023-07-25T10:43:50.145Z,34.06
2023-07-25T10:46:27.676Z,33.98
2023-07-25T10:49:05.800Z,33.85
2023-07-25T10:51:53.523Z,33.88
2023-07-25T10:54:23.624Z,33.89
2023-07-25T10:57:16.130Z,33.87
2023-07-25T11:00:05.915Z,34.37
2023-07-25T11:02:42.162Z,34.35
2023-07-25T11:05:15.515Z,34.95
2023-07-25T11:07:46.279Z,34.70
2023-07-25T11:10:20.159Z,34.89
2023-07-25T11:12:56.316Z,34.88
2023-07-25T11:15:45.014Z,34.65
2023-07-25T11:18:12.961Z,34.96
2023-07-25T11:20:40.568Z,35.20
2023-07-25T11:23:08.450Z,35.52
2023-07-25T11:25:36.072Z,35.74
2023-07-25T11:28:03.827Z,35.82
2023-07-25T11:30:31.210Z,36.58
2023-07-25T11:32:58.985Z,36.35
2023-07-25T11:35:26.505Z,36.38
2023-07-25T11:38:02.427Z,36.74
2023-07-25T11:40:33.143Z,36.90
2023-07-25T11:43:01.035Z,37.25
2023-07-25T11:45:28.583Z,36.88
2023-07-25T11:47:57.055Z,36.73
2023-07-25T11:50:30.140Z,36.98
2023-07-25T11:53:00.463Z,36.94
2023-07-25T11:55:29.068Z,36.47
2023-07-25T11:57:56.942Z,36.32
2023-07-25T12:00:25.050Z,36.45
2023-07-25T12:02:52.970Z,36.36
2023-07-25T12:05:29.116Z,36.08
2023-07-25T12:08:02.293Z,36.03
2023-07-25T12:10:35.593Z,36.17
2023-07-25T12:13:05.049Z,36.10
2023-07-25T12:15:47.117Z,35.85
2023-07-25T12:18:27.830Z,35.84
2023-07-25T12:21:00.337Z,35.75
2023-07-25T12:23:31.794Z,35.60
2023-07-25T12:26:02.634Z,35.55
2023-07-25T12:28:46.301Z,35.20
2023-07-25T12:31:14.652Z,35.10
2023-07-25T12:33:46.727Z,34.75
2023-07-25T12:36:14.141Z,34.79
2023-07-25T12:38:41.818Z,34.74
2023-07-25T12:41:09.147Z,34.57
2023-07-25T12:43:37.166Z,34.41
2023-07-25T12:46:04.730Z,34.40
2023-07-25T12:48:32.486Z,34.52
2023-07-25T12:51:00.382Z,34.67
2023-07-25T12:54:24.282Z,34.71
2023-07-25T12:57:13.050Z,34.46
2023-07-25T12:59:40.607Z,34.38
2023-07-25T13:02:07.946Z,33.93
2023-07-25T13:04:35.849Z,33.66
2023-07-25T13:07:03.357Z,33.65
2023-07-25T13:09:31.078Z,33.49
2023-07-25T13:11:58.440Z,33.28
2023-07-25T13:14:26.191Z,33.38
2023-07-25T13:16:53.489Z,33.40
2023-07-25T13:19:21.095Z,33.33
2023-07-25T13:21:48.486Z,33.40
2023-07-25T13:24:16.218Z,33.29
2023-07-25T13:26:43.561Z,33.13
2023-07-25T13:29:11.279Z,32.95
2023-07-25T13:31:40.580Z,32.69
2023-07-25T13:34:08.264Z,32.53
2023-07-25T13:36:36.928Z,32.53
2023-07-25T13:39:04.594Z,32.35
2023-07-25T13:41:32.013Z,32.63
2023-07-25T13:43:59.902Z,33.14
2023-07-25T13:46:27.265Z,33.71
2023-07-25T13:48:54.919Z,33.28
2023-07-25T13:51:22.410Z,33.32
2023-07-25T13:53:50.053Z,33.11
2023-07-25T13:56:17.416Z,33.21
2023-07-25T13:58:47.354Z,32.89
2023-07-25T14:01:15.180Z,33.47
2023-07-25T14:03:43.051Z,33.84
2023-07-25T14:06:10.510Z,34.01
2023-07-25T14:08:38.288Z,34.23
2023-07-25T14:11:05.789Z,34.48
2023-07-25T14:13:33.487Z,34.13
2023-07-25T14:16:00.881Z,34.03
2023-07-25T14:18:28.524Z,33.55
2023-07-25T14:21:00.755Z,33.23
2023-07-25T14:23:28.706Z,33.20
2023-07-25T14:25:56.031Z,33.30
2023-07-25T14:28:23.695Z,33.24
2023-07-25T14:30:51.270Z,33.42
2023-07-25T14:33:21.797Z,33.35
2023-07-25T14:35:49.533Z,33.25
2023-07-25T14:38:18.476Z,33.43
2023-07-25T14:40:47.066Z,33.24
2023-07-25T14:43:14.933Z,33.40
2023-07-25T14:45:42.188Z,32.81
2023-07-25T14:48:09.903Z,32.30
2023-07-25T14:50:38.035Z,32.16
2023-07-25T14:53:05.750Z,32.05
2023-07-25T14:55:33.329Z,31.84
2023-07-25T14:58:01.263Z,31.51
2023-07-25T15:00:29.008Z,31.66
2023-07-25T15:02:56.836Z,31.52
2023-07-25T15:05:24.196Z,31.52
2023-07-25T15:07:51.853Z,31.50
2023-07-25T15:10:19.294Z,31.44
2023-07-25T15:12:47.658Z,31.05
2023-07-25T15:15:14.976Z,30.87
2023-07-25T15:17:43.069Z,30.87
2023-07-25T15:20:35.875Z,30.71
2023-07-25T15:23:04.607Z,30.84
2023-07-25T15:25:31.925Z,30.68
2023-07-25T15:27:59.645Z,30.69
2023-07-25T15:30:27.394Z,30.82
2023-07-25T15:32:55.179Z,30.89
2023-07-25T15:35:26.421Z,30.83
2023-07-25T15:37:57.271Z,30.76
2023-07-25T15:40:24.878Z,30.70
2023-07-25T15:42:52.751Z,30.78
2023-07-25T15:45:20.074Z,30.94
2023-07-25T15:47:47.745Z,30.87
2023-07-25T15:50:15.329Z,30.78
2023-07-25T15:52:42.902Z,30.49
2023-07-25T15:55:10.242Z,30.59
2023-07-25T15:57:37.986Z,30.63
2023-07-25T16:00:08.398Z,30.59
2023-07-25T16:02:36.655Z,30.63
2023-07-25T16:05:04.380Z,30.62
2023-07-25T16:07:35.266Z,30.47
2023-07-25T16:10:04.455Z,30.63
2023-07-25T16:12:33.826Z,30.64
2023-07-25T16:15:01.253Z,30.62
2023-07-25T16:17:28.969Z,30.63
2023-07-25T16:19:56.400Z,30.72
2023-07-25T16:22:24.121Z,30.40
2023-07-25T16:24:51.585Z,30.34
2023-07-25T16:27:19.326Z,30.24
2023-07-25T16:29:46.883Z,30.16
2023-07-25T16:32:14.742Z,30.18
2023-07-25T16:34:42.193Z,30.12
2023-07-25T16:37:09.953Z,29.90
2023-07-25T16:39:37.273Z,30.10
2023-07-25T16:42:05.163Z,30.13
2023-07-25T16:44:32.561Z,30.09
2023-07-25T16:47:00.219Z,30.04
2023-07-25T16:49:29.267Z,29.90
2023-07-25T16:51:57.818Z,29.77
2023-07-25T16:54:26.641Z,29.53
2023-07-25T16:56:54.352Z,29.43
2023-07-25T16:59:21.702Z,29.52
2023-07-25T17:01:49.367Z,29.51
2023-07-25T17:04:17.532Z,29.52
2023-07-25T17:06:45.241Z,29.39
2023-07-25T17:09:12.596Z,29.23
2023-07-25T17:11:43.697Z,28.86
2023-07-25T17:14:11.123Z,29.06
2023-07-25T17:16:38.795Z,29.05
2023-07-25T17:19:06.148Z,29.09
2023-07-25T17:21:40.875Z,28.87
2023-07-25T17:24:09.268Z,28.76
2023-07-25T17:26:36.899Z,28.79
2023-07-25T17:29:04.397Z,28.74
2023-07-25T17:31:32.425Z,28.64
2023-07-25T17:34:00.022Z,28.59
2023-07-25T17:36:27.732Z,28.52
2023-07-25T17:38:55.095Z,28.29
2023-07-25T17:41:23.796Z,28.25
2023-07-25T17:43:51.412Z,28.26
2023-07-25T17:46:19.240Z,28.14
2023-07-25T17:48:46.673Z,27.97
2023-07-25T17:51:14.458Z,27.94
2023-07-25T17:53:41.806Z,27.78
2023-07-25T17:56:10.593Z,27.79
2023-07-25T17:58:38.039Z,27.75
2023-07-25T18:01:05.935Z,27.54
2023-07-25T18:03:33.680Z,27.45
2023-07-25T18:06:01.428Z,27.48
2023-07-25T18:08:28.867Z,27.28
2023-07-25T18:10:56.658Z,27.25
2023-07-25T18:13:25.031Z,27.19
2023-07-25T18:15:52.747Z,27.09
2023-07-25T18:18:20.348Z,26.92
2023-07-25T18:20:48.669Z,26.87
2023-07-25T18:23:20.114Z,26.79
2023-07-25T18:25:48.355Z,26.71
2023-07-25T18:28:18.639Z,26.64
2023-07-25T18:30:46.350Z,26.73
2023-07-25T18:33:15.417Z,26.65
2023-07-25T18:35:43.263Z,26.60
2023-07-25T18:38:10.718Z,26.34
2023-07-25T18:40:39.007Z,26.22
2023-07-25T18:43:06.985Z,26.23
2023-07-25T18:45:34.638Z,26.19
2023-07-25T18:48:02.049Z,26.19
2023-07-25T18:50:30.944Z,26.25
2023-07-25T18:52:58.531Z,26.23
2023-07-25T18:55:26.300Z,26.19
2023-07-25T18:57:54.385Z,26.20
2023-07-25T19:00:22.395Z,26.13
2023-07-25T19:02:51.263Z,26.13
2023-07-25T19:05:18.956Z,26.29
2023-07-25T19:07:46.508Z,26.32
2023-07-25T19:10:18.831Z,26.36
2023-07-25T19:12:46.567Z,26.51
2023-07-25T19:15:14.445Z,26.39
2023-07-25T19:17:41.813Z,26.38
2023-07-25T19:20:11.069Z,26.34
2023-07-25T19:22:38.659Z,26.35
2023-07-25T19:25:06.745Z,26.29
2023-07-25T19:27:34.788Z,26.30
2023-07-25T19:30:02.798Z,26.22
2023-07-25T19:32:30.225Z,26.30
2023-07-25T19:34:58.029Z,26.30
2023-07-25T19:37:25.422Z,26.37
2023-07-25T19:39:53.273Z,26.32
2023-07-25T19:42:20.671Z,26.36
2023-07-25T19:44:49.476Z,26.36
2023-07-25T19:47:16.757Z,26.45
2023-07-25T19:49:44.455Z,26.45
2023-07-25T19:52:11.816Z,26.46
2023-07-25T19:54:39.556Z,26.46
2023-07-25T19:57:07.065Z,26.46
2023-07-25T19:59:34.848Z,26.49
2023-07-25T20:02:02.459Z,26.56
2023-07-25T20:04:30.304Z,26.45
2023-07-25T20:06:57.715Z,26.64
2023-07-25T20:09:25.379Z,26.45
2023-07-25T20:11:52.682Z,26.41
2023-07-25T20:14:21.122Z,26.21
2023-07-25T20:16:48.492Z,26.21
2023-07-25T20:19:18.588Z,26.15
2023-07-25T20:21:49.640Z,26.12
2023-07-25T20:24:17.909Z,26.08
2023-07-25T20:26:45.324Z,26.12
2023-07-25T20:29:12.976Z,26.10
2023-07-25T20:31:40.318Z,26.10
2023-07-25T20:34:08.124Z,25.81
2023-07-25T20:36:35.667Z,26.17
2023-07-25T20:39:03.585Z,25.83
2023-07-25T20:41:31.484Z,25.80
2023-07-25T20:44:01.630Z,25.94
2023-07-25T20:46:29.290Z,25.81
2023-07-25T20:48:57.117Z,25.78
2023-07-25T20:51:24.546Z,25.69
2023-07-25T20:53:52.959Z,25.72
2023-07-25T20:56:20.541Z,25.75
2023-07-25T20:58:48.357Z,25.80
2023-07-25T21:01:16.233Z,25.95
2023-07-25T21:03:44.685Z,25.68
2023-07-25T21:06:12.079Z,25.59
2023-07-25T21:08:39.823Z,25.85
2023-07-25T21:11:09.311Z,25.82
2023-07-25T21:13:38.221Z,25.37
2023-07-25T21:16:05.910Z,25.05
2023-07-25T21:18:34.862Z,24.87
2023-07-25T21:21:07.418Z,24.93
2023-07-25T21:23:37.438Z,25.14
2023-07-25T21:26:05.304Z,25.10
2023-07-25T21:28:34.642Z,25.29
2023-07-25T21:31:02.589Z,25.09
2023-07-25T21:33:30.269Z,25.14
2023-07-25T21:36:11.911Z,25.09
2023-07-25T21:38:40.686Z,25.06
2023-07-25T21:41:13.477Z,25.13
2023-07-25T21:43:43.132Z,25.37
2023-07-25T21:46:10.993Z,25.18
2023-07-25T21:48:38.897Z,24.84
2023-07-25T21:51:06.529Z,24.76
2023-07-25T21:53:34.777Z,24.79
2023-07-25T21:56:02.084Z,24.94
2023-07-25T21:58:29.839Z,25.02
2023-07-25T22:00:59.264Z,24.98
2023-07-25T22:03:31.664Z,24.97
2023-07-25T22:06:00.823Z,25.20
2023-07-25T22:08:28.542Z,25.46
2023-07-25T22:10:56.587Z,25.59
2023-07-25T22:13:25.459Z,25.33
2023-07-25T22:15:52.983Z,25.33
2023-07-25T22:18:21.009Z,25.09
2023-07-25T22:20:52.471Z,25.33
2023-07-25T22:23:22.628Z,25.04
2023-07-25T22:25:50.167Z,25.02
2023-07-25T22:28:18.060Z,24.97
2023-07-25T22:30:45.382Z,24.88
2023-07-25T22:33:14.136Z,24.98
2023-07-25T22:35:41.454Z,25.05
2023-07-25T22:38:09.163Z,24.96
2023-07-25T22:40:36.568Z,25.24
2023-07-25T22:43:04.534Z,25.11
2023-07-25T22:45:32.192Z,25.03
2023-07-25T22:48:00.006Z,25.11
2023-07-25T22:50:27.332Z,24.81
2023-07-25T22:52:55.199Z,24.80
2023-07-25T22:55:22.608Z,24.92
2023-07-25T22:57:50.363Z,24.80
2023-07-25T23:00:18.209Z,24.80
2023-07-25T23:02:46.184Z,24.69
2023-07-25T23:05:14.052Z,25.05
2023-07-25T23:07:41.939Z,24.64
2023-07-25T23:10:09.819Z,24.68
2023-07-25T23:12:37.601Z,24.95
2023-07-25T23:15:05.658Z,24.88
2023-07-25T23:17:33.577Z,24.66
2023-07-25T23:20:01.071Z,24.71
2023-07-25T23:22:28.867Z,24.62
2023-07-25T23:24:57.453Z,24.64
2023-07-25T23:27:25.419Z,24.50
2023-07-25T23:29:52.837Z,24.50
2023-07-25T23:32:20.574Z,24.26
2023-07-25T23:34:50.500Z,24.14
2023-07-25T23:37:18.493Z,24.14
2023-07-25T23:39:46.111Z,24.12
2023-07-25T23:42:15.203Z,24.24
2023-07-25T23:44:44.196Z,24.11
2023-07-25T23:47:13.987Z,24.36
2023-07-25T23:49:41.481Z,24.20
2023-07-25T23:52:09.162Z,23.98
2023-07-25T23:54:36.546Z,23.82
2023-07-25T23:57:04.762Z,23.82
2023-07-25T23:59:32.345Z,23.98
